Time;durP1;ratioP1;P1;durP2;ratioP2;P2;SDS_P1;SDS_P2;PMS_P1;PMS_P2;Temp;Humidity;BMP_temperature;BMP_pressure;BME280_temperature;BME280_humidity;BME280_pressure;Samples;Min_cycle;Max_cycle;Signal;HPM_P1;HPM_P2
2021/12/08 00:01:59;;;;;;;50.52;23.67;;;;;;;-2.39;83.46;99899.45;2095525;82;21041;-72
2021/12/08 00:05:01;;;;;;;48.87;22.87;;;;;;;-2.41;83.53;99891.36;2086568;83;21587;-73
2021/12/08 00:08:05;;;;;;;55.43;25.25;;;;;;;-2.45;83.46;99895.88;2094161;82;21034;-73
2021/12/08 00:14:27;;;;;;;51.03;22.63;;;;;;;-2.51;83.53;99899.67;2101895;81;21612;-75
2021/12/08 00:17:28;;;;;;;53.65;24.18;;;;;;;-2.52;83.57;99908.87;2101305;82;21480;-73
2021/12/08 00:20:32;;;;;;;50.70;23.35;;;;;;;-2.51;83.65;99897.55;2094071;81;20998;-73
2021/12/08 00:23:34;;;;;;;49.53;23.35;;;;;;;-2.50;83.74;99902.66;2094112;82;21105;-72
2021/12/08 00:26:36;;;;;;;48.05;22.70;;;;;;;-2.50;83.73;99902.66;2104974;82;21086;-73
2021/12/08 00:29:38;;;;;;;49.00;24.57;;;;;;;-2.50;83.73;99888.38;2074672;83;21556;-73
2021/12/08 00:32:41;;;;;;;51.23;24.98;;;;;;;-2.49;83.81;99880.11;2096331;82;21551;-74
2021/12/08 00:35:46;;;;;;;48.60;24.43;;;;;;;-2.49;83.77;99862.76;2096225;82;21005;-73
2021/12/08 00:38:47;;;;;;;47.50;21.97;;;;;;;-2.48;83.83;99864.89;2108476;82;21019;-73
2021/12/08 00:41:49;;;;;;;48.50;23.85;;;;;;;-2.49;83.84;99854.96;2085732;83;21781;-73
2021/12/08 00:44:50;;;;;;;48.20;21.48;;;;;;;-2.47;83.97;99862.68;2088188;81;21014;-73
2021/12/08 00:47:53;;;;;;;48.35;23.45;;;;;;;-2.47;83.92;99839.77;2091750;82;21071;-74
2021/12/08 00:50:55;;;;;;;51.23;23.70;;;;;;;-2.45;83.94;99856.91;2100772;82;21753;-73
2021/12/08 00:53:56;;;;;;;48.55;20.90;;;;;;;-2.45;83.99;99854.31;2092747;83;21068;-73
2021/12/08 00:56:58;;;;;;;53.45;23.85;;;;;;;-2.44;84.07;99849.50;2084155;82;21093;-73
2021/12/08 01:00:02;;;;;;;58.00;25.70;;;;;;;-2.43;84.05;99845.14;2087105;82;21129;-75
2021/12/08 01:03:04;;;;;;;49.88;23.12;;;;;;;-2.42;84.08;99861.95;2091180;83;21012;-75
2021/12/08 01:06:05;;;;;;;52.55;21.02;;;;;;;-2.39;84.15;99857.88;2103052;82;21028;-75
2021/12/08 01:09:07;;;;;;;48.38;22.62;;;;;;;-2.40;84.04;99854.88;2102857;82;22401;-75
2021/12/08 01:12:09;;;;;;;49.90;23.62;;;;;;;-2.41;84.01;99856.28;2090956;83;21457;-75
2021/12/08 01:15:11;;;;;;;50.55;23.40;;;;;;;-2.40;84.02;99855.34;2098277;82;21064;-76
2021/12/08 01:18:15;;;;;;;54.05;25.12;;;;;;;-2.40;84.03;99834.09;2096063;82;21042;-80
2021/12/08 01:21:18;;;;;;;51.40;23.20;;;;;;;-2.40;84.01;99843.19;2094863;82;21550;-77
2021/12/08 01:24:20;;;;;;;45.00;22.60;;;;;;;-2.39;84.00;99839.68;2093485;82;21121;-77
2021/12/08 01:27:22;;;;;;;50.10;24.20;;;;;;;-2.38;84.00;99843.94;2096042;82;21116;-75
2021/12/08 01:30:23;;;;;;;52.53;23.90;;;;;;;-2.37;83.99;99845.59;2098875;82;21076;-75
2021/12/08 01:33:25;;;;;;;46.48;21.17;;;;;;;-2.36;84.00;99855.55;2099738;82;21065;-79
2021/12/08 01:36:27;;;;;;;52.08;23.25;;;;;;;-2.35;83.98;99855.45;2093314;82;21546;-75
2021/12/08 01:39:28;;;;;;;56.53;26.60;;;;;;;-2.34;83.97;99858.41;2096353;82;21103;-73
2021/12/08 01:42:35;;;;;;;57.27;27.00;;;;;;;-2.35;83.88;99857.22;2091591;82;21061;-75
2021/12/08 01:48:53;;;;;;;54.77;24.53;;;;;;;-2.36;83.92;99838.20;2102982;82;21074;-74
2021/12/08 01:51:55;;;;;;;54.33;25.20;;;;;;;-2.35;83.94;99838.55;2097298;82;21068;-76
2021/12/08 01:54:57;;;;;;;54.63;26.73;;;;;;;-2.35;83.94;99842.45;2103410;83;20993;-75
2021/12/08 01:57:58;;;;;;;53.68;25.08;;;;;;;-2.35;83.91;99829.93;2098767;82;21034;-76
2021/12/08 02:01:07;;;;;;;51.55;23.12;;;;;;;-2.35;83.99;99820.36;2092777;82;21085;-72
2021/12/08 02:04:11;;;;;;;53.95;25.02;;;;;;;-2.33;83.99;99819.81;2083599;82;21457;-74
2021/12/08 02:07:12;;;;;;;55.50;25.30;;;;;;;-2.34;83.98;99821.20;2104547;82;21076;-74
2021/12/08 02:10:14;;;;;;;54.27;22.90;;;;;;;-2.35;84.00;99817.77;2102301;82;21010;-72
2021/12/08 02:13:16;;;;;;;50.95;23.75;;;;;;;-2.34;84.06;99809.03;2092907;83;21014;-72
2021/12/08 02:16:18;;;;;;;60.08;26.97;;;;;;;-2.34;84.11;99810.33;2100938;82;21530;-75
2021/12/08 02:19:20;;;;;;;54.83;25.82;;;;;;;-2.32;84.12;99805.88;2098304;82;21022;-77
2021/12/08 02:22:21;;;;;;;54.88;25.37;;;;;;;-2.29;84.15;99797.90;2097011;81;20973;-77
2021/12/08 02:25:26;;;;;;;54.55;26.70;;;;;;;-2.26;84.13;99789.09;2099671;82;21063;-73
2021/12/08 02:28:27;;;;;;;57.48;27.42;;;;;;;-2.27;84.06;99786.95;2082111;82;22216;-73
2021/12/08 02:31:37;;;;;;;52.13;23.70;;;;;;;-2.27;84.06;99786.95;2086776;83;21627;-73
2021/12/08 02:47:54;;;;;;;54.40;25.32;;;;;;;-2.27;84.19;99766.16;2088962;82;21078;-74
2021/12/08 02:50:57;;;;;;;56.77;26.45;;;;;;;-2.24;84.21;99770.81;2105244;82;21028;-77
2021/12/08 02:53:59;;;;;;;54.15;24.75;;;;;;;-2.26;84.17;99771.72;2100744;81;21074;-73
2021/12/08 02:57:01;;;;;;;64.03;27.87;;;;;;;-2.27;84.18;99764.86;2094427;82;21088;-73
2021/12/08 03:00:10;;;;;;;57.15;26.40;;;;;;;-2.27;84.20;99761.44;2101803;82;21102;-73
2021/12/08 03:03:12;;;;;;;59.00;29.60;;;;;;;-2.29;84.23;99755.02;2093875;83;21064;-74
2021/12/08 03:06:14;;;;;;;63.83;28.23;;;;;;;-2.29;84.29;99743.79;2101029;81;21076;-73
2021/12/08 03:09:16;;;;;;;59.95;28.02;;;;;;;-2.32;84.29;99747.41;2098724;81;21493;-73
2021/12/08 03:12:29;;;;;;;59.67;24.75;;;;;;;-2.33;84.26;99739.72;2103303;82;21121;-73
2021/12/08 03:15:31;;;;;;;59.77;28.52;;;;;;;-2.33;84.33;99746.22;2086795;81;21144;-76
2021/12/08 03:18:35;;;;;;;68.40;28.50;;;;;;;-2.36;84.34;99740.74;2076137;83;21014;-75
2021/12/08 03:21:39;;;;;;;58.55;27.20;;;;;;;-2.35;84.39;99744.17;2098913;82;21044;-75
2021/12/08 03:24:44;;;;;;;62.53;26.65;;;;;;;-2.37;84.42;99737.75;2097923;82;21058;-73
2021/12/08 03:28:03;;;;;;;59.93;28.42;;;;;;;-2.37;84.48;99726.06;2086442;82;21056;-77
2021/12/08 03:31:01;;;;;;;60.70;27.82;;;;;;;-2.36;84.53;99725.63;2096792;82;22430;-73
2021/12/08 03:33:57;;;;;;;68.22;29.10;;;;;;;-2.36;84.61;99723.85;2091662;82;21579;-72
2021/12/08 03:36:59;;;;;;;65.15;29.15;;;;;;;-2.37;84.67;99726.06;2112914;82;21097;-76
2021/12/08 03:40:05;;;;;;;58.33;27.05;;;;;;;-2.35;84.67;99725.52;2094317;82;21902;-74
2021/12/08 03:43:07;;;;;;;65.97;29.02;;;;;;;-2.35;84.78;99708.62;2102082;81;21674;-79
2021/12/08 03:46:12;;;;;;;49.15;21.30;;;;;;;-2.38;84.71;99702.31;2092806;82;21013;-73
2021/12/08 03:49:16;;;;;;;68.15;30.43;;;;;;;-2.39;84.92;99706.30;2086462;81;21089;-73
2021/12/08 03:52:18;;;;;;;69.40;31.42;;;;;;;-2.41;84.75;99699.08;2104652;82;21050;-77
2021/12/08 03:55:19;;;;;;;62.95;28.73;;;;;;;-2.40;84.87;99696.37;2073040;82;21581;-72
2021/12/08 03:58:23;;;;;;;59.93;25.27;;;;;;;-2.40;84.90;99684.67;2089819;82;21566;-74
2021/12/08 04:01:25;;;;;;;64.77;28.35;;;;;;;-2.40;84.98;99687.27;2083272;83;21017;-72
2021/12/08 04:04:29;;;;;;;57.23;23.35;;;;;;;-2.39;85.05;99682.47;2092273;82;21638;-75
2021/12/08 04:07:31;;;;;;;56.80;26.15;;;;;;;-2.37;85.08;99673.26;2099046;82;22423;-73
2021/12/08 04:10:33;;;;;;;56.68;24.63;;;;;;;-2.35;85.00;99661.84;2093921;82;21094;-72
2021/12/08 04:13:46;;;;;;;53.58;20.30;;;;;;;-2.32;85.02;99673.81;2104622;82;21657;-73
2021/12/08 04:16:56;;;;;;;49.60;21.82;;;;;;;-2.32;84.95;99664.25;2089855;83;21081;-73
2021/12/08 04:20:01;;;;;;;54.05;22.80;;;;;;;-2.31;84.96;99655.54;2093278;82;21076;-73
2021/12/08 04:23:07;;;;;;;50.28;21.87;;;;;;;-2.32;84.96;99654.32;2099139;82;21571;-74
2021/12/08 04:26:17;;;;;;;58.52;24.50;;;;;;;-2.33;84.93;99649.59;2087996;82;21501;-77
2021/12/08 04:29:30;;;;;;;53.33;22.55;;;;;;;-2.34;84.94;99644.01;2104273;82;21119;-73
2021/12/08 04:32:32;;;;;;;54.30;23.18;;;;;;;-2.35;84.98;99645.42;2091893;82;21101;-75
2021/12/08 04:35:38;;;;;;;57.60;24.12;;;;;;;-2.37;85.03;99645.50;2100382;82;21026;-73
2021/12/08 04:38:46;;;;;;;54.00;23.87;;;;;;;-2.38;85.04;99646.45;2094316;82;21010;-74
2021/12/08 04:41:52;;;;;;;56.92;22.85;;;;;;;-2.37;85.23;99641.61;2079722;83;21062;-73
2021/12/08 04:44:56;;;;;;;59.35;23.70;;;;;;;-2.35;85.14;99644.13;2108853;82;21109;-73
2021/12/08 04:48:11;;;;;;;58.20;22.60;;;;;;;-2.36;85.21;99655.45;2093190;82;21605;-74
2021/12/08 04:51:16;;;;;;;56.80;23.77;;;;;;;-2.36;85.22;99645.89;2081871;82;21116;-73
2021/12/08 05:01:27;;;;;;;63.33;24.37;;;;;;;-2.39;85.31;99638.30;2012516;86;22072;-72
2021/12/08 05:04:36;;;;;;;59.65;23.07;;;;;;;-2.39;85.29;99626.59;2084350;83;21017;-73
2021/12/08 05:07:47;;;;;;;63.52;26.17;;;;;;;-2.38;85.32;99649.05;2094272;82;21944;-74
2021/12/08 05:10:37;;;;;;;62.03;24.12;;;;;;;-2.37;85.39;99634.28;2106375;82;21124;-74
2021/12/08 05:13:39;;;;;;;61.92;26.40;;;;;;;-2.39;85.35;99638.30;2093941;83;21007;-73
2021/12/08 05:16:43;;;;;;;63.42;26.23;;;;;;;-2.39;85.23;99635.69;2105736;82;20990;-78
2021/12/08 05:19:50;;;;;;;57.67;23.38;;;;;;;-2.38;85.21;99633.45;2102513;82;21405;-74
2021/12/08 05:22:59;;;;;;;53.25;22.70;;;;;;;-2.39;85.15;99635.69;2074170;83;21031;-75
2021/12/08 05:26:11;;;;;;;65.45;25.43;;;;;;;-2.40;85.12;99640.50;2085033;82;21018;-74
2021/12/08 05:29:18;;;;;;;51.75;22.80;;;;;;;-2.42;85.05;99631.99;2087515;82;21042;-75
2021/12/08 05:32:20;;;;;;;56.48;22.67;;;;;;;-2.44;85.08;99635.61;2093144;82;21081;-75
2021/12/08 05:35:25;;;;;;;62.17;24.37;;;;;;;-2.44;85.08;99648.13;2088865;82;21081;-74
2021/12/08 05:38:27;;;;;;;54.48;22.90;;;;;;;-2.45;85.16;99640.42;2097354;82;21606;-76
2021/12/08 05:41:33;;;;;;;60.10;24.47;;;;;;;-2.44;85.11;99645.53;2089467;82;21093;-73
2021/12/08 05:44:36;;;;;;;56.75;22.62;;;;;;;-2.47;85.11;99637.94;2108113;81;20974;-76
2021/12/08 05:47:39;;;;;;;57.35;23.18;;;;;;;-2.46;85.21;99653.05;2097078;81;21057;-72
2021/12/08 05:50:48;;;;;;;49.73;22.70;;;;;;;-2.45;85.23;99650.81;2086336;81;21055;-71
2021/12/08 05:53:55;;;;;;;49.67;21.75;;;;;;;-2.46;85.20;99645.26;2085123;82;20991;-70
2021/12/08 05:57:00;;;;;;;51.95;22.17;;;;;;;-2.45;85.10;99652.94;2095635;82;21071;-70
2021/12/08 06:00:07;;;;;;;61.00;26.05;;;;;;;-2.42;85.14;99651.48;2094255;82;21045;-70
2021/12/08 06:03:11;;;;;;;52.27;22.25;;;;;;;-2.39;85.19;99650.42;2094530;82;21673;-73
2021/12/08 06:06:13;;;;;;;44.27;18.12;;;;;;;-2.36;85.12;99649.79;2067531;83;21123;-71
2021/12/08 06:09:19;;;;;;;49.15;20.97;;;;;;;-2.39;85.07;99640.89;2099002;81;21105;-71
2021/12/08 06:12:21;;;;;;;56.50;23.47;;;;;;;-2.40;84.96;99639.67;2089355;81;21080;-71
2021/12/08 06:15:23;;;;;;;49.53;22.07;;;;;;;-2.43;84.99;99635.97;2085367;82;21082;-71
2021/12/08 06:18:26;;;;;;;49.67;21.20;;;;;;;-2.43;84.97;99633.38;2088961;82;21065;-71
2021/12/08 06:21:30;;;;;;;46.88;21.35;;;;;;;-2.42;84.94;99631.99;2099013;82;21774;-71
2021/12/08 06:24:31;;;;;;;45.28;20.20;;;;;;;-2.45;84.89;99626.95;2097296;82;21034;-71
2021/12/08 06:27:33;;;;;;;44.98;21.00;;;;;;;-2.46;84.79;99634.39;2085078;82;21101;-70
2021/12/08 06:30:38;;;;;;;43.40;20.32;;;;;;;-2.47;84.74;99639.70;2095552;82;21077;-71
2021/12/08 06:33:40;;;;;;;32.48;17.15;;;;;;;-2.49;84.71;99638.48;2096326;83;21608;-70
2021/12/08 06:36:58;;;;;;;37.60;17.57;;;;;;;-2.50;84.66;99638.95;2095406;82;20978;-71
2021/12/08 06:40:27;;;;;;;45.90;20.68;;;;;;;-2.53;84.52;99644.81;2079745;83;21140;-71
2021/12/08 06:43:34;;;;;;;49.95;22.60;;;;;;;-2.58;84.35;99648.16;2097884;82;21021;-70
2021/12/08 06:46:38;;;;;;;47.05;19.62;;;;;;;-2.64;84.30;99649.84;2104655;82;21526;-70
2021/12/08 06:49:41;;;;;;;47.88;21.17;;;;;;;-2.66;84.29;99642.59;2098522;82;21083;-70
2021/12/08 06:52:43;;;;;;;45.45;21.25;;;;;;;-2.68;84.42;99649.64;2094054;82;21042;-70
2021/12/08 06:55:52;;;;;;;46.42;21.23;;;;;;;-2.70;84.42;99648.45;2097799;81;21064;-69
2021/12/08 06:58:59;;;;;;;55.08;22.07;;;;;;;-2.72;84.48;99647.70;2098344;82;21553;-70
2021/12/08 07:02:14;;;;;;;39.92;19.32;;;;;;;-2.70;84.41;99648.45;2093568;82;21022;-75
2021/12/08 07:05:31;;;;;;;55.63;24.55;;;;;;;-2.70;84.44;99647.16;2082390;83;21052;-70
2021/12/08 07:08:37;;;;;;;49.27;21.33;;;;;;;-2.69;84.47;99648.81;2092669;82;21089;-71
2021/12/08 07:11:39;;;;;;;60.85;24.25;;;;;;;-2.72;84.43;99650.30;2089125;82;21134;-71
2021/12/08 07:14:46;;;;;;;53.15;23.12;;;;;;;-2.75;84.40;99657.81;2097963;82;21073;-71
2021/12/08 07:17:52;;;;;;;51.15;22.35;;;;;;;-2.76;84.48;99660.05;2098484;82;20997;-71
2021/12/08 07:20:59;;;;;;;57.43;24.23;;;;;;;-2.75;84.51;99659.11;2094054;82;21049;-71
2021/12/08 07:24:06;;;;;;;57.33;26.12;;;;;;;-2.74;84.51;99658.64;2100039;81;21445;-71
2021/12/08 07:27:16;;;;;;;60.03;24.07;;;;;;;-2.74;84.56;99655.58;2090234;82;21123;-71
2021/12/08 07:30:29;;;;;;;59.88;24.45;;;;;;;-2.72;84.63;99652.90;2086861;82;21058;-71
2021/12/08 07:33:32;;;;;;;52.65;22.87;;;;;;;-2.67;84.63;99648.73;2101182;82;21160;-70
2021/12/08 07:36:38;;;;;;;53.38;22.93;;;;;;;-2.63;84.43;99662.72;2097666;82;21156;-71
2021/12/08 07:39:45;;;;;;;55.92;24.70;;;;;;;-2.63;84.08;99665.31;2103851;82;21049;-72
2021/12/08 07:43:02;;;;;;;53.83;23.50;;;;;;;-2.62;83.96;99660.95;2092506;82;21327;-71
2021/12/08 07:46:12;;;;;;;53.17;23.02;;;;;;;-2.59;83.98;99655.56;2091514;83;21606;-71
2021/12/08 07:49:19;;;;;;;59.67;23.85;;;;;;;-2.58;83.92;99658.08;2091545;81;21120;-72
2021/12/08 07:52:29;;;;;;;56.83;24.92;;;;;;;-2.56;83.89;99656.23;2081047;83;21406;-71
2021/12/08 07:55:38;;;;;;;53.70;24.25;;;;;;;-2.52;84.09;99656.86;2088070;83;21065;-70
2021/12/08 07:58:43;;;;;;;70.47;28.25;;;;;;;-2.47;84.12;99652.23;2118570;82;21096;-70
2021/12/08 08:01:49;;;;;;;58.85;26.42;;;;;;;-2.47;84.08;99650.92;2094072;82;21478;-71
2021/12/08 08:04:52;;;;;;;71.92;28.77;;;;;;;-2.44;84.18;99653.33;2092765;82;21018;-71
2021/12/08 08:07:54;;;;;;;62.67;25.90;;;;;;;-2.43;84.17;99644.59;2102082;81;21060;-72
2021/12/08 08:11:04;;;;;;;58.38;26.07;;;;;;;-2.42;84.18;99639.78;2102255;82;21015;-72
2021/12/08 08:14:07;;;;;;;55.35;24.35;;;;;;;-2.39;84.09;99634.83;2100048;82;21001;-71
2021/12/08 08:17:16;;;;;;;58.25;24.65;;;;;;;-2.40;84.04;99637.08;2084071;83;21066;-71
2021/12/08 08:20:29;;;;;;;57.35;23.15;;;;;;;-2.39;84.01;99638.73;2094773;82;21517;-71
2021/12/08 08:23:33;;;;;;;51.00;21.80;;;;;;;-2.39;83.92;99635.69;2089763;82;21132;-70
2021/12/08 08:26:38;;;;;;;63.87;23.40;;;;;;;-2.38;83.82;99641.72;2088800;82;21038;-72
2021/12/08 08:29:40;;;;;;;50.10;20.85;;;;;;;-2.36;83.71;99633.38;2097943;82;21015;-71
2021/12/08 08:32:42;;;;;;;51.37;21.23;;;;;;;-2.37;83.57;99635.58;2105658;81;21067;-70
2021/12/08 08:35:48;;;;;;;47.48;20.45;;;;;;;-2.39;83.37;99629.20;2101094;83;21063;-70
2021/12/08 08:38:55;;;;;;;53.60;21.02;;;;;;;-2.39;83.42;99634.39;2097741;82;21068;-73
2021/12/08 08:42:28;;;;;;;52.65;22.42;;;;;;;-2.42;83.15;99639.78;2092469;82;21044;-72
2021/12/08 08:45:41;;;;;;;51.15;21.25;;;;;;;-2.47;83.13;99635.34;2100222;82;21600;-70
2021/12/08 08:48:51;;;;;;;46.68;21.30;;;;;;;-2.45;83.22;99642.55;2094623;82;21038;-69
2021/12/08 08:52:22;;;;;;;41.37;17.27;;;;;;;-2.41;83.18;99653.61;2093793;82;21035;-69
2021/12/08 08:55:28;;;;;;;44.00;20.70;;;;;;;-2.38;82.84;99650.34;2099895;81;21176;-70
2021/12/08 08:58:33;;;;;;;50.48;21.77;;;;;;;-2.36;83.11;99648.49;2100497;83;21503;-70
2021/12/08 09:01:40;;;;;;;45.78;19.62;;;;;;;-2.33;83.06;99650.06;2092944;82;21058;-70
2021/12/08 09:04:50;;;;;;;44.90;20.35;;;;;;;-2.35;82.86;99648.84;2090529;82;21877;-70
2021/12/08 09:07:56;;;;;;;40.55;17.62;;;;;;;-2.33;82.81;99643.57;2100757;82;21934;-70
2021/12/08 09:11:18;;;;;;;39.90;17.70;;;;;;;-2.35;82.46;99651.92;2086620;83;21113;-70
2021/12/08 09:14:34;;;;;;;43.00;18.75;;;;;;;-2.36;82.53;99645.89;2098406;82;21054;-71
2021/12/08 09:17:47;;;;;;;43.20;18.30;;;;;;;-2.36;82.45;99651.56;2083913;82;21714;-71
2021/12/08 09:21:08;;;;;;;41.70;18.98;;;;;;;-2.37;82.60;99639.00;2098084;82;21047;-71
2021/12/08 09:24:11;;;;;;;41.45;17.17;;;;;;;-2.42;82.19;99643.69;2104374;82;21057;-71
2021/12/08 09:27:17;;;;;;;40.80;17.73;;;;;;;-2.47;82.24;99639.23;2096327;82;21175;-71
2021/12/08 09:30:33;;;;;;;40.17;17.70;;;;;;;-2.52;82.16;99628.28;2090963;82;21091;-72
2021/12/08 09:33:42;;;;;;;35.35;14.47;;;;;;;-2.53;82.29;99626.63;2107082;82;21007;-70
2021/12/08 09:36:49;;;;;;;39.33;16.73;;;;;;;-2.53;82.27;99621.44;2105603;81;21065;-70
2021/12/08 09:40:11;;;;;;;39.18;18.10;;;;;;;-2.53;82.32;99614.94;2103677;81;21060;-70
2021/12/08 09:43:24;;;;;;;44.42;18.12;;;;;;;-2.55;82.17;99616.32;2093987;82;20987;-70
2021/12/08 09:46:34;;;;;;;37.58;17.00;;;;;;;-2.59;82.25;99619.19;2089563;82;21153;-70
2021/12/08 09:49:35;;;;;;;40.38;16.95;;;;;;;-2.61;82.17;99618.48;2099658;82;21049;-69
2021/12/08 09:52:38;;;;;;;40.85;17.20;;;;;;;-2.62;82.29;99607.70;2108624;82;21060;-70
2021/12/08 09:55:39;;;;;;;39.73;18.77;;;;;;;-2.64;82.25;99605.69;2070197;83;21559;-76
2021/12/08 09:58:41;;;;;;;36.73;16.42;;;;;;;-2.63;82.29;99596.95;2096094;82;21002;-71
2021/12/08 10:01:44;;;;;;;36.33;16.57;;;;;;;-2.63;82.21;99585.27;2094525;82;21029;-71
2021/12/08 10:04:46;;;;;;;36.45;16.45;;;;;;;-2.62;82.26;99572.19;2095109;82;21078;-71
2021/12/08 10:07:49;;;;;;;46.40;17.65;;;;;;;-2.60;82.25;99561.22;2102971;82;21568;-71
2021/12/08 10:10:50;;;;;;;35.08;15.35;;;;;;;-2.61;82.04;99554.37;2103222;82;21128;-71
2021/12/08 10:13:53;;;;;;;37.53;17.00;;;;;;;-2.63;82.04;99542.41;2094698;82;20998;-73
2021/12/08 10:16:55;;;;;;;32.42;14.50;;;;;;;-2.67;82.05;99542.24;2099192;82;21592;-72
2021/12/08 10:20:11;;;;;;;36.35;16.90;;;;;;;-2.73;81.99;99537.80;2083318;83;21038;-71
2021/12/08 10:23:28;;;;;;;36.50;16.02;;;;;;;-2.75;82.09;99537.52;2095323;82;21081;-71
2021/12/08 10:26:33;;;;;;;29.90;13.32;;;;;;;-2.76;82.14;99539.73;2093868;82;21624;-71
2021/12/08 10:29:35;;;;;;;39.65;18.00;;;;;;;-2.73;82.15;99530.01;2108402;82;21057;-73
2021/12/08 10:32:37;;;;;;;34.35;16.87;;;;;;;-2.69;82.08;99540.20;2089871;82;21084;-72
2021/12/08 10:35:47;;;;;;;32.50;13.85;;;;;;;-2.65;81.82;99549.45;2100653;82;20971;-72
2021/12/08 10:38:49;;;;;;;30.80;11.12;;;;;;;-2.64;81.75;99551.97;2097746;81;21061;-71
2021/12/08 10:42:08;;;;;;;33.18;14.58;;;;;;;-2.69;81.55;99545.39;2091245;82;21523;-71
2021/12/08 10:45:14;;;;;;;33.58;15.68;;;;;;;-2.73;81.73;99539.56;2094461;81;21014;-71
2021/12/08 10:48:34;;;;;;;37.35;16.82;;;;;;;-2.76;81.83;99535.40;2092113;82;21501;-72
2021/12/08 10:54:50;;;;;;;35.05;17.02;;;;;;;-2.80;81.70;99536.50;2080106;82;21113;-71
2021/12/08 10:57:54;;;;;;;37.67;16.52;;;;;;;-2.81;81.80;99517.97;2088272;81;21069;-71
2021/12/08 11:01:00;;;;;;;40.33;18.48;;;;;;;-2.83;81.68;99531.97;2070181;82;21058;-71
2021/12/08 11:04:06;;;;;;;32.17;15.28;;;;;;;-2.82;81.99;99528.44;2084638;83;21636;-73
2021/12/08 11:07:09;;;;;;;34.78;15.70;;;;;;;-2.76;82.06;99530.64;2079731;81;21066;-73
2021/12/08 11:10:19;;;;;;;35.55;16.93;;;;;;;-2.79;81.56;99539.48;2099272;82;21466;-72
2021/12/08 11:13:26;;;;;;;38.58;18.25;;;;;;;-2.86;81.51;99534.30;2105837;81;21622;-72
2021/12/08 11:16:36;;;;;;;35.15;16.02;;;;;;;-2.90;81.62;99543.66;2097227;81;23083;-73
2021/12/08 11:19:37;;;;;;;45.58;18.77;;;;;;;-2.87;81.77;99541.73;2101163;82;21101;-72
2021/12/08 11:22:39;;;;;;;37.75;17.85;;;;;;;-2.87;81.61;99540.42;2098023;81;21046;-72
2021/12/08 11:25:46;;;;;;;41.37;16.82;;;;;;;-2.89;81.50;99544.88;2101117;82;21037;-72
2021/12/08 11:29:05;;;;;;;34.27;17.02;;;;;;;-2.93;81.22;99547.27;2093357;83;21587;-72
2021/12/08 11:32:12;;;;;;;37.40;16.65;;;;;;;-2.96;81.17;99550.92;2093356;81;22409;-70
2021/12/08 11:35:20;;;;;;;37.95;17.12;;;;;;;-2.98;81.36;99550.64;2069276;82;21070;-71
2021/12/08 11:38:26;;;;;;;38.98;17.77;;;;;;;-2.93;81.59;99548.57;2091390;81;21060;-71
2021/12/08 11:41:44;;;;;;;35.73;14.40;;;;;;;-2.93;81.23;99538.19;2097314;82;21046;-72
2021/12/08 11:44:51;;;;;;;33.98;16.12;;;;;;;-2.89;81.49;99540.16;2097113;82;21098;-72
2021/12/08 11:47:52;;;;;;;32.28;17.12;;;;;;;-2.95;81.20;99533.58;2102540;82;21118;-72
2021/12/08 11:51:12;;;;;;;35.90;15.68;;;;;;;-2.96;81.34;99528.00;2067685;83;21030;-72
2021/12/08 11:54:54;;;;;;;29.18;12.63;;;;;;;-2.97;81.42;99531.53;2100486;82;21073;-71
2021/12/08 11:57:57;;;;;;;40.60;17.48;;;;;;;-3.04;81.34;99515.52;2105742;82;21068;-71
2021/12/08 12:01:01;;;;;;;40.03;17.82;;;;;;;-3.06;81.59;99508.75;2090602;82;21470;-72
2021/12/08 12:04:07;;;;;;;33.10;16.17;;;;;;;-3.09;81.67;99498.56;2075401;83;21774;-71
2021/12/08 12:07:12;;;;;;;40.52;17.57;;;;;;;-3.09;81.81;99495.97;2092816;83;21116;-71
2021/12/08 12:10:17;;;;;;;39.25;16.85;;;;;;;-3.08;81.84;99489.83;2089506;83;21005;-71
2021/12/08 12:13:19;;;;;;;35.85;15.72;;;;;;;-3.08;81.85;99493.26;2103753;82;21026;-73
2021/12/08 12:16:22;;;;;;;37.85;18.45;;;;;;;-3.08;81.79;99484.17;2083036;82;21076;-73
2021/12/08 12:19:27;;;;;;;35.15;16.60;;;;;;;-3.06;81.80;99490.11;2100824;81;23083;-72
2021/12/08 12:22:49;;;;;;;34.80;15.88;;;;;;;-3.03;81.84;99492.52;2112710;82;21676;-72
2021/12/08 12:26:11;;;;;;;37.55;16.65;;;;;;;-3.03;81.67;99485.19;2097112;82;21358;-72
2021/12/08 12:29:36;;;;;;;37.60;17.55;;;;;;;-3.10;81.56;99489.91;2091343;82;21039;-72
2021/12/08 12:32:48;;;;;;;33.45;13.68;;;;;;;-3.17;81.65;99476.97;2087910;81;21130;-72
2021/12/08 12:35:55;;;;;;;40.98;18.23;;;;;;;-3.17;81.80;99475.67;2082303;82;21006;-72
2021/12/08 12:39:13;;;;;;;39.95;18.65;;;;;;;-3.20;81.87;99474.09;2101851;82;21073;-71
2021/12/08 12:42:17;;;;;;;37.93;17.65;;;;;;;-3.20;82.00;99475.39;2094085;82;21038;-71
2021/12/08 12:45:25;;;;;;;31.68;14.13;;;;;;;-3.21;82.03;99464.66;2101388;82;21093;-72
2021/12/08 12:48:30;;;;;;;35.23;15.93;;;;;;;-3.22;82.03;99467.33;2089519;82;21053;-71
2021/12/08 12:51:36;;;;;;;37.13;17.35;;;;;;;-3.24;82.11;99444.53;2092018;82;21051;-71
2021/12/08 12:54:39;;;;;;;42.90;19.17;;;;;;;-3.25;82.21;99441.11;2097576;82;21072;-71
2021/12/08 12:58:08;;;;;;;46.15;19.05;;;;;;;-3.23;82.23;99457.89;2088074;82;21112;-71
2021/12/08 13:01:14;;;;;;;37.78;18.80;;;;;;;-3.23;82.25;99447.05;2086426;82;21003;-71
2021/12/08 13:04:22;;;;;;;40.95;19.20;;;;;;;-3.19;82.32;99452.39;2097972;82;21057;-71
2021/12/08 13:07:27;;;;;;;43.50;19.57;;;;;;;-3.17;82.21;99451.02;2026473;85;21014;-72
2021/12/08 13:10:38;;;;;;;42.98;19.55;;;;;;;-3.21;82.25;99440.00;2017737;86;21100;-71
2021/12/08 13:13:49;;;;;;;40.08;19.60;;;;;;;-3.21;82.23;99441.74;2066130;83;21070;-70
2021/12/08 13:17:14;;;;;;;40.08;19.27;;;;;;;-3.21;82.27;99441.30;2080435;82;21101;-70
2021/12/08 13:20:19;;;;;;;37.28;18.40;;;;;;;-3.22;82.33;99445.27;2089340;82;21060;-70
2021/12/08 13:23:25;;;;;;;39.13;18.07;;;;;;;-3.22;82.31;99458.25;2076220;82;21152;-70
2021/12/08 13:26:28;;;;;;;43.15;19.90;;;;;;;-3.20;82.33;99466.31;2086488;81;21070;-71
2021/12/08 13:29:31;;;;;;;40.88;18.55;;;;;;;-3.17;82.32;99463.99;2095531;83;21089;-71
2021/12/08 13:32:47;;;;;;;39.05;17.48;;;;;;;-3.19;82.19;99464.07;2089270;82;21136;-71
2021/12/08 13:35:48;;;;;;;39.85;18.80;;;;;;;-3.20;82.28;99470.20;2091276;82;21045;-72
2021/12/08 13:39:25;;;;;;;38.63;17.45;;;;;;;-3.19;82.29;99474.92;2087586;82;21104;-70
2021/12/08 13:42:30;;;;;;;39.92;17.37;;;;;;;-3.20;82.21;99471.50;2100707;82;21080;-72
2021/12/08 13:45:42;;;;;;;39.38;18.52;;;;;;;-3.19;82.29;99461.95;2090516;83;21090;-72
2021/12/08 13:49:27;;;;;;;36.68;15.72;;;;;;;-3.16;82.25;99468.23;2094216;83;21104;-72
2021/12/08 13:52:38;;;;;;;41.37;19.02;;;;;;;-3.18;82.19;99461.04;2093830;83;21060;-72
2021/12/08 13:55:44;;;;;;;40.55;19.65;;;;;;;-3.21;82.27;99463.36;2091182;83;21078;-72
2021/12/08 13:58:46;;;;;;;47.73;21.15;;;;;;;-3.20;82.35;99477.98;2098059;81;21057;-71
2021/12/08 14:01:47;;;;;;;46.68;19.40;;;;;;;-3.20;82.33;99470.20;2093122;82;21011;-73
2021/12/08 14:05:02;;;;;;;46.92;20.23;;;;;;;-3.19;82.36;99467.97;2104806;81;21458;-73
2021/12/08 14:08:18;;;;;;;36.83;19.02;;;;;;;-3.18;82.37;99478.73;2101739;82;21066;-73
2021/12/08 14:11:23;;;;;;;45.17;21.00;;;;;;;-3.18;82.40;99476.61;2088091;82;21058;-73
2021/12/08 14:14:23;;;;;;;42.35;20.15;;;;;;;-3.20;82.32;99483.65;2107128;82;21144;-73
2021/12/08 14:17:29;;;;;;;40.10;19.90;;;;;;;-3.22;82.33;99482.43;2100345;82;21079;-74
2021/12/08 14:20:34;;;;;;;44.65;19.35;;;;;;;-3.24;82.36;99483.02;2097299;82;20933;-75
2021/12/08 14:23:40;;;;;;;44.40;19.45;;;;;;;-3.23;82.44;99486.44;2079244;82;21025;-74
2021/12/08 14:26:41;;;;;;;35.88;13.15;;;;;;;-3.25;82.31;99486.98;2091335;83;21027;-75
2021/12/08 14:29:48;;;;;;;47.23;20.45;;;;;;;-3.30;82.28;99484.66;2084273;83;20987;-74
2021/12/08 14:33:04;;;;;;;39.23;18.73;;;;;;;-3.33;82.38;99480.13;2087040;81;21549;-73
2021/12/08 14:36:09;;;;;;;38.92;17.25;;;;;;;-3.34;82.48;99478.01;2097746;82;21549;-73
2021/12/08 14:39:33;;;;;;;45.90;19.07;;;;;;;-3.35;82.51;99480.25;2095928;82;21011;-71
2021/12/08 14:42:34;;;;;;;44.08;18.75;;;;;;;-3.37;82.53;99491.17;2100685;82;21082;-75
2021/12/08 14:45:35;;;;;;;46.45;20.77;;;;;;;-3.37;82.53;99481.27;2099148;82;21124;-75
2021/12/08 14:48:44;;;;;;;38.35;16.95;;;;;;;-3.37;82.56;99470.89;2096359;81;21050;-72